createdAt,value
2022-11-10T00:01:36.860Z,92.43
2022-11-10T00:04:21.783Z,92.57
2022-11-10T00:07:06.666Z,92.55
2022-11-10T00:09:54.966Z,92.35
2022-11-10T00:12:39.997Z,92.35
2022-11-10T00:15:43.649Z,92.59
2022-11-10T00:18:28.834Z,92.83
2022-11-10T00:21:15.636Z,92.75
2022-11-10T00:24:00.777Z,92.99
2022-11-10T00:26:46.561Z,93.13
2022-11-10T00:29:31.504Z,93.57
2022-11-10T00:32:16.463Z,93.33
2022-11-10T00:35:01.581Z,93.37
2022-11-10T00:37:49.422Z,93.44
2022-11-10T00:40:34.481Z,93.60
2022-11-10T00:43:22.512Z,93.38
2022-11-10T00:46:10.282Z,93.63
2022-11-10T00:48:55.177Z,93.85
2022-11-10T00:51:40.012Z,93.99
2022-11-10T00:54:25.740Z,93.87
2022-11-10T00:57:10.636Z,93.92
2022-11-10T00:59:55.611Z,94.03
2022-11-10T01:02:40.519Z,93.92
2022-11-10T01:05:25.382Z,94.30
2022-11-10T01:08:10.709Z,94.09
2022-11-10T01:11:04.786Z,93.90
2022-11-10T01:13:52.023Z,93.96
2022-11-10T01:16:37.203Z,94.08
2022-11-10T01:19:22.267Z,94.21
2022-11-10T01:22:07.938Z,94.28
2022-11-10T01:24:53.083Z,94.51
2022-11-10T01:27:38.024Z,94.30
2022-11-10T01:30:22.866Z,94.39
2022-11-10T01:33:07.867Z,94.52
2022-11-10T01:35:52.809Z,94.57
2022-11-10T01:38:40.182Z,94.73
2022-11-10T01:41:25.203Z,94.73
2022-11-10T01:44:25.296Z,94.66
2022-11-10T01:47:10.341Z,94.88
2022-11-10T01:49:55.359Z,95.06
2022-11-10T01:52:43.569Z,95.04
2022-11-10T01:55:28.866Z,95.08
2022-11-10T01:58:16.251Z,95.10
2022-11-10T02:01:01.208Z,95.10
2022-11-10T02:03:50.236Z,95.01
2022-11-10T02:06:40.832Z,94.97
2022-11-10T02:09:26.011Z,94.97
2022-11-10T02:12:11.890Z,95.04
2022-11-10T02:14:56.717Z,95.17
2022-11-10T02:17:42.182Z,95.33
2022-11-10T02:20:27.145Z,95.22
2022-11-10T02:23:35.437Z,95.42
2022-11-10T02:26:24.302Z,95.49
2022-11-10T02:29:09.658Z,95.62
2022-11-10T02:31:54.832Z,95.80
2022-11-10T02:34:40.034Z,95.53
2022-11-10T02:37:25.298Z,95.78
2022-11-10T02:40:10.847Z,95.92
2022-11-10T02:42:56.086Z,96.24
2022-11-10T02:45:47.112Z,95.94
2022-11-10T02:48:32.038Z,96.08
2022-11-10T02:51:17.470Z,96.34
2022-11-10T02:54:02.443Z,96.27
2022-11-10T02:56:47.663Z,96.32
2022-11-10T02:59:32.589Z,96.58
2022-11-10T03:02:17.714Z,96.53
2022-11-10T03:05:02.867Z,96.31
2022-11-10T03:07:57.052Z,96.15
2022-11-10T03:10:42.313Z,96.47
2022-11-10T03:13:40.210Z,96.59
2022-11-10T03:16:32.588Z,96.72
2022-11-10T03:19:17.570Z,96.76
2022-11-10T03:22:02.430Z,96.69
2022-11-10T03:24:47.339Z,96.67
2022-11-10T03:27:32.676Z,96.54
2022-11-10T03:30:17.567Z,96.89
2022-11-10T03:33:03.852Z,96.66
2022-11-10T03:35:48.800Z,96.81
2022-11-10T03:38:33.580Z,96.76
2022-11-10T03:41:20.082Z,96.76
2022-11-10T03:44:05.655Z,97.04
2022-11-10T03:46:51.888Z,96.97
2022-11-10T03:49:36.935Z,97.10
2022-11-10T03:52:21.847Z,97.50
2022-11-10T03:55:07.564Z,97.30
2022-11-10T03:57:52.383Z,97.45
2022-11-10T04:00:37.365Z,97.59
2022-11-10T04:03:23.360Z,98.03
2022-11-10T04:06:29.210Z,97.99
2022-11-10T04:09:14.432Z,97.94
2022-11-10T04:12:22.112Z,98.04
2022-11-10T04:15:30.736Z,97.94
2022-11-10T04:18:21.926Z,98.22
2022-11-10T04:21:06.919Z,98.24
2022-11-10T04:23:51.811Z,98.44
2022-11-10T04:26:38.683Z,98.73
2022-11-10T04:29:23.578Z,98.73
2022-11-10T04:32:08.538Z,98.93
2022-11-10T04:34:53.458Z,98.94
2022-11-10T04:37:38.273Z,98.75
2022-11-10T04:40:23.216Z,99.05
2022-11-10T04:43:08.510Z,99.10
2022-11-10T04:45:54.520Z,99.00
2022-11-10T04:48:39.385Z,99.23
2022-11-10T04:51:30.092Z,99.48
2022-11-10T04:54:15.229Z,99.73
2022-11-10T04:57:00.138Z,99.67
2022-11-10T04:59:45.076Z,99.66
2022-11-10T05:02:30.348Z,99.83
2022-11-10T05:05:15.770Z,99.66
2022-11-10T05:08:01.064Z,99.54
2022-11-10T05:10:45.923Z,99.59
2022-11-10T05:13:31.362Z,99.61
2022-11-10T05:16:16.780Z,99.56
2022-11-10T05:19:01.840Z,99.60
2022-11-10T05:21:46.749Z,99.61
2022-11-10T05:24:31.660Z,99.65
2022-11-10T05:27:16.545Z,99.67
2022-11-10T05:30:01.421Z,99.87
2022-11-10T05:32:46.328Z,100.00
2022-11-10T05:35:31.399Z,100.00
2022-11-10T05:38:17.202Z,99.97
2022-11-10T05:41:02.144Z,99.96
2022-11-10T05:43:47.339Z,99.99
2022-11-10T05:46:32.479Z,100.00
2022-11-10T05:49:17.353Z,100.00
2022-11-10T05:52:02.275Z,100.00
2022-11-10T05:54:47.186Z,100.00
2022-11-10T05:57:33.479Z,100.00
2022-11-10T06:00:21.804Z,100.00
2022-11-10T06:03:13.853Z,100.00
2022-11-10T06:05:58.727Z,100.00
2022-11-10T06:08:43.606Z,100.00
2022-11-10T06:11:28.479Z,100.00
2022-11-10T06:14:13.242Z,100.00
2022-11-10T06:16:58.259Z,100.00
2022-11-10T06:19:43.089Z,100.00
2022-11-10T06:22:28.334Z,100.00
2022-11-10T06:25:13.260Z,100.00
2022-11-10T06:27:59.082Z,100.00
2022-11-10T06:30:44.133Z,100.00
2022-11-10T06:33:29.185Z,100.00
2022-11-10T06:36:14.293Z,100.00
2022-11-10T06:38:59.436Z,100.00
2022-11-10T06:41:44.342Z,100.00
2022-11-10T06:44:29.268Z,100.00
2022-11-10T06:47:15.829Z,100.00
2022-11-10T06:50:00.886Z,100.00
2022-11-10T06:52:53.674Z,100.00
2022-11-10T06:55:39.200Z,100.00
2022-11-10T06:58:24.191Z,100.00
2022-11-10T07:01:09.107Z,100.00
2022-11-10T07:04:18.299Z,100.00
2022-11-10T07:06:59.145Z,100.00
2022-11-10T07:09:43.901Z,100.00
2022-11-10T07:12:28.847Z,100.00
2022-11-10T07:15:13.741Z,100.00
2022-11-10T07:17:58.906Z,100.00
2022-11-10T07:20:43.742Z,100.00
2022-11-10T07:23:28.805Z,100.00
2022-11-10T07:26:13.898Z,100.00
2022-11-10T07:28:59.130Z,100.00
2022-11-10T07:31:44.180Z,100.00
2022-11-10T07:34:29.741Z,100.00
2022-11-10T07:37:14.942Z,100.00
2022-11-10T07:39:59.817Z,100.00
2022-11-10T07:42:44.791Z,100.00
2022-11-10T07:45:31.309Z,100.00
2022-11-10T07:48:17.106Z,100.00
2022-11-10T07:51:02.008Z,100.00
2022-11-10T07:53:46.765Z,100.00
2022-11-10T07:56:32.019Z,100.00
2022-11-10T07:59:17.144Z,100.00
2022-11-10T08:02:02.067Z,100.00
2022-11-10T08:04:46.835Z,100.00
2022-11-10T08:07:31.777Z,100.00
2022-11-10T08:10:16.814Z,99.87
2022-11-10T08:13:04.537Z,99.47
2022-11-10T08:15:49.834Z,99.20
2022-11-10T08:18:35.835Z,99.29
2022-11-10T08:21:20.666Z,99.37
2022-11-10T08:24:05.883Z,99.12
2022-11-10T08:26:50.958Z,99.00
2022-11-10T08:29:36.114Z,98.75
2022-11-10T08:32:21.275Z,98.59
2022-11-10T08:35:06.833Z,98.51
2022-11-10T08:37:51.905Z,98.22
2022-11-10T08:40:37.820Z,97.77
2022-11-10T08:43:23.910Z,97.63
2022-11-10T08:46:09.186Z,97.41
2022-11-10T08:48:54.378Z,97.24
2022-11-10T08:51:39.552Z,97.36
2022-11-10T08:54:24.791Z,97.03
2022-11-10T08:57:09.661Z,96.78
2022-11-10T08:59:54.526Z,96.66
2022-11-10T09:02:39.479Z,96.47
2022-11-10T09:05:24.264Z,96.28
2022-11-10T09:08:09.638Z,95.62
2022-11-10T09:10:54.726Z,95.06
2022-11-10T09:13:39.797Z,95.00
2022-11-10T09:16:24.729Z,94.61
2022-11-10T09:19:09.704Z,94.72
2022-11-10T09:21:54.619Z,94.21
2022-11-10T09:24:39.402Z,93.99
2022-11-10T09:27:24.387Z,93.80
2022-11-10T09:30:14.546Z,93.65
2022-11-10T09:33:02.692Z,93.05
2022-11-10T09:35:47.871Z,92.63
2022-11-10T09:38:33.865Z,92.65
2022-11-10T09:41:18.759Z,92.43
2022-11-10T09:44:18.273Z,92.27
2022-11-10T09:47:12.452Z,91.83
2022-11-10T09:50:01.969Z,92.01
2022-11-10T09:52:49.172Z,90.47
2022-11-10T09:55:49.863Z,90.16
2022-11-10T09:58:43.329Z,90.55
2022-11-10T10:01:49.380Z,89.82
2022-11-10T10:05:07.432Z,89.80
2022-11-10T10:08:02.256Z,89.08
2022-11-10T10:10:51.810Z,88.50
2022-11-10T10:13:57.196Z,87.93
2022-11-10T10:16:54.396Z,88.49
2022-11-10T10:20:09.844Z,88.22
2022-11-10T10:23:05.709Z,87.73
2022-11-10T10:25:53.345Z,87.55
2022-11-10T10:28:40.892Z,86.23
2022-11-10T10:31:32.473Z,86.20
2022-11-10T10:34:27.252Z,85.57
2022-11-10T10:37:24.734Z,85.37
2022-11-10T10:40:19.070Z,84.42
2022-11-10T10:43:04.131Z,82.89
2022-11-10T10:46:07.803Z,83.43
2022-11-10T10:49:27.858Z,83.60
2022-11-10T10:52:16.794Z,82.28
2022-11-10T10:55:07.958Z,81.14
2022-11-10T10:58:00.040Z,80.59
2022-11-10T11:00:47.988Z,80.47
2022-11-10T11:03:47.832Z,79.87
2022-11-10T11:06:34.688Z,79.03
2022-11-10T11:09:27.647Z,78.79
2022-11-10T11:12:25.908Z,76.31
2022-11-10T11:15:20.922Z,76.59
2022-11-10T11:18:18.517Z,74.60
2022-11-10T11:21:09.586Z,75.00
2022-11-10T11:23:54.306Z,73.50
2022-11-10T11:27:05.087Z,71.59
2022-11-10T11:30:05.549Z,67.93
2022-11-10T11:33:00.898Z,67.60
2022-11-10T11:35:51.596Z,65.51
2022-11-10T11:38:49.294Z,65.95
2022-11-10T11:41:57.775Z,63.94
2022-11-10T11:45:07.095Z,64.06
2022-11-10T11:48:16.651Z,61.26
2022-11-10T11:51:18.124Z,59.30
2022-11-10T11:54:26.523Z,57.51
2022-11-10T11:57:17.648Z,57.27
2022-11-10T12:00:13.376Z,55.13
2022-11-10T12:03:29.782Z,53.65
2022-11-10T12:06:24.247Z,54.30
2022-11-10T12:09:41.505Z,53.09
2022-11-10T12:12:48.348Z,52.35
2022-11-10T12:15:46.444Z,52.16
2022-11-10T12:18:40.060Z,51.02
2022-11-10T12:21:46.184Z,49.74
2022-11-10T12:24:44.273Z,49.67
2022-11-10T12:27:40.753Z,49.47
2022-11-10T12:30:27.062Z,48.08
2022-11-10T12:33:21.211Z,46.61
2022-11-10T12:36:12.343Z,46.92
2022-11-10T12:39:04.577Z,46.52
2022-11-10T12:41:55.863Z,45.30
2022-11-10T12:45:05.664Z,44.03
2022-11-10T12:47:52.762Z,43.90
2022-11-10T12:50:44.032Z,44.73
2022-11-10T12:53:38.502Z,42.88
2022-11-10T12:56:39.378Z,43.32
2022-11-10T12:59:26.702Z,42.08
2022-11-10T13:02:31.683Z,42.00
2022-11-10T13:05:36.958Z,42.16
2022-11-10T13:08:46.888Z,42.80
2022-11-10T13:11:36.772Z,42.68
2022-11-10T13:14:28.754Z,40.73
2022-11-10T13:17:29.217Z,40.94
2022-11-10T13:20:39.239Z,42.09
2022-11-10T13:23:31.791Z,42.26
2022-11-10T13:27:33.586Z,41.87
2022-11-10T13:30:46.368Z,44.15
2022-11-10T13:33:38.037Z,45.34
2022-11-10T13:36:43.684Z,45.64
2022-11-10T13:39:33.422Z,45.80
2022-11-10T13:42:23.206Z,46.10
2022-11-10T13:45:26.560Z,47.20
2022-11-10T13:48:11.393Z,48.09
2022-11-10T13:51:32.753Z,48.77
2022-11-10T13:54:44.356Z,49.20
2022-11-10T13:57:35.641Z,48.82
2022-11-10T14:00:20.752Z,49.27
2022-11-10T14:03:07.563Z,49.63
2022-11-10T14:06:03.026Z,49.76
2022-11-10T14:09:13.695Z,49.79
2022-11-10T14:12:06.070Z,49.95
2022-11-10T14:15:06.751Z,50.72
2022-11-10T14:17:54.656Z,50.57
2022-11-10T14:20:45.341Z,51.46
2022-11-10T14:23:42.237Z,51.31
2022-11-10T14:26:35.795Z,52.32
2022-11-10T14:29:20.805Z,52.77
2022-11-10T14:32:32.259Z,53.56
2022-11-10T14:35:20.965Z,53.84
2022-11-10T14:38:17.926Z,54.25
2022-11-10T14:41:06.612Z,55.19
2022-11-10T14:44:06.841Z,55.84
2022-11-10T14:46:52.975Z,56.16
2022-11-10T14:49:38.166Z,56.34
2022-11-10T14:52:23.139Z,57.17
2022-11-10T14:55:13.259Z,57.09
2022-11-10T14:58:09.997Z,57.96
2022-11-10T15:00:54.974Z,58.43
2022-11-10T15:03:42.555Z,58.54
2022-11-10T15:06:29.058Z,59.13
2022-11-10T15:09:16.910Z,59.19
2022-11-10T15:12:08.237Z,59.87
2022-11-10T15:14:59.207Z,60.50
2022-11-10T15:17:50.426Z,61.11
2022-11-10T15:20:38.534Z,60.80
2022-11-10T15:23:33.432Z,61.43
2022-11-10T15:26:24.893Z,61.59
2022-11-10T15:29:19.949Z,61.80
2022-11-10T15:32:15.012Z,62.33
2022-11-10T15:35:18.411Z,62.94
2022-11-10T15:38:05.341Z,63.03
2022-11-10T15:40:52.443Z,63.24
2022-11-10T15:43:37.565Z,63.58
2022-11-10T15:46:25.526Z,63.66
2022-11-10T15:49:39.801Z,63.87
2022-11-10T15:52:24.633Z,64.16
2022-11-10T15:55:20.279Z,64.38
2022-11-10T15:58:11.814Z,64.76
2022-11-10T16:00:56.772Z,65.11
2022-11-10T16:03:42.184Z,65.13
2022-11-10T16:06:27.426Z,65.78
2022-11-10T16:09:13.392Z,65.80
2022-11-10T16:11:58.367Z,65.84
2022-11-10T16:14:48.335Z,66.28
2022-11-10T16:17:34.792Z,66.32
2022-11-10T16:20:19.726Z,66.69
2022-11-10T16:23:04.623Z,66.91
2022-11-10T16:25:51.923Z,67.15
2022-11-10T16:28:36.754Z,67.49
2022-11-10T16:31:22.486Z,67.92
2022-11-10T16:34:13.887Z,68.19
2022-11-10T16:36:59.937Z,68.41
2022-11-10T16:39:44.725Z,68.62
2022-11-10T16:42:30.073Z,68.88
2022-11-10T16:45:20.860Z,69.14
2022-11-10T16:48:07.442Z,69.67
2022-11-10T16:50:54.977Z,69.78
2022-11-10T16:53:41.405Z,70.00
2022-11-10T16:56:26.922Z,70.58
2022-11-10T16:59:13.383Z,71.24
2022-11-10T17:01:58.605Z,71.89
2022-11-10T17:04:43.665Z,71.91
2022-11-10T17:07:29.385Z,72.35
2022-11-10T17:10:19.517Z,72.51
2022-11-10T17:13:04.468Z,72.89
2022-11-10T17:15:51.764Z,73.15
2022-11-10T17:18:36.676Z,73.25
2022-11-10T17:21:22.950Z,73.93
2022-11-10T17:24:10.909Z,73.93
2022-11-10T17:26:55.874Z,74.29
2022-11-10T17:29:40.757Z,74.46
2022-11-10T17:32:50.153Z,74.55
2022-11-10T17:35:35.060Z,74.78
2022-11-10T17:38:33.295Z,74.81
2022-11-10T17:41:19.906Z,74.72
2022-11-10T17:44:05.042Z,75.04
2022-11-10T17:46:50.050Z,74.96
2022-11-10T17:49:34.849Z,75.30
2022-11-10T17:52:19.821Z,75.29
2022-11-10T17:55:05.047Z,75.31
2022-11-10T17:57:50.671Z,75.41
2022-11-10T18:00:35.974Z,75.28
2022-11-10T18:03:22.964Z,75.45
2022-11-10T18:06:08.562Z,75.12
2022-11-10T18:08:53.702Z,75.05
2022-11-10T18:11:38.728Z,75.05
2022-11-10T18:14:23.487Z,75.08
2022-11-10T18:17:08.341Z,75.49
2022-11-10T18:19:53.330Z,75.58
2022-11-10T18:22:38.584Z,75.56
2022-11-10T18:25:23.551Z,75.41
2022-11-10T18:28:13.710Z,75.04
2022-11-10T18:30:58.632Z,74.81
2022-11-10T18:33:43.572Z,74.89
2022-11-10T18:36:28.551Z,74.70
2022-11-10T18:39:13.751Z,74.78
2022-11-10T18:41:58.605Z,74.88
2022-11-10T18:44:43.589Z,74.74
2022-11-10T18:47:28.558Z,74.66
2022-11-10T18:50:13.383Z,74.87
2022-11-10T18:52:58.514Z,75.18
2022-11-10T18:55:53.229Z,75.26
2022-11-10T18:58:38.152Z,75.51
2022-11-10T19:01:23.834Z,75.66
2022-11-10T19:04:09.766Z,75.72
2022-11-10T19:06:54.796Z,76.10
2022-11-10T19:09:39.862Z,76.06
2022-11-10T19:12:26.672Z,76.04
2022-11-10T19:15:12.132Z,76.09
2022-11-10T19:17:57.061Z,75.89
2022-11-10T19:20:42.427Z,76.15
2022-11-10T19:23:27.380Z,76.11
2022-11-10T19:26:18.003Z,76.14
2022-11-10T19:29:07.353Z,76.33
2022-11-10T19:31:52.288Z,76.46
2022-11-10T19:34:40.339Z,76.70
2022-11-10T19:37:26.244Z,76.73
2022-11-10T19:40:13.598Z,76.62
2022-11-10T19:42:58.814Z,76.41
2022-11-10T19:45:43.814Z,76.70
2022-11-10T19:48:30.485Z,76.86
2022-11-10T19:51:17.900Z,77.01
2022-11-10T19:54:04.817Z,76.70
2022-11-10T19:56:49.867Z,77.01
2022-11-10T19:59:34.893Z,76.84
2022-11-10T20:02:20.118Z,76.72
2022-11-10T20:05:16.075Z,76.98
2022-11-10T20:08:13.424Z,76.98
2022-11-10T20:11:01.317Z,77.30
2022-11-10T20:13:49.784Z,77.31
2022-11-10T20:16:38.251Z,77.63
2022-11-10T20:19:23.145Z,77.52
2022-11-10T20:22:08.261Z,78.06
2022-11-10T20:24:53.415Z,78.07
2022-11-10T20:27:38.225Z,78.20
2022-11-10T20:30:23.874Z,78.72
2022-11-10T20:33:08.878Z,78.76
2022-11-10T20:35:53.795Z,78.87
2022-11-10T20:38:39.764Z,79.00
2022-11-10T20:41:27.227Z,79.20
2022-11-10T20:44:12.279Z,79.55
2022-11-10T20:46:57.403Z,79.58
2022-11-10T20:49:42.359Z,79.63
2022-11-10T20:52:27.301Z,79.84
2022-11-10T20:55:18.061Z,79.99
2022-11-10T20:58:03.446Z,80.23
2022-11-10T21:00:48.425Z,79.93
2022-11-10T21:03:33.904Z,80.58
2022-11-10T21:06:19.106Z,80.73
2022-11-10T21:09:06.931Z,80.88
2022-11-10T21:12:10.641Z,80.92
2022-11-10T21:14:56.028Z,81.38
2022-11-10T21:17:44.118Z,81.37
2022-11-10T21:20:29.449Z,81.77
2022-11-10T21:23:14.541Z,81.79
2022-11-10T21:26:00.990Z,81.79
2022-11-10T21:28:45.985Z,82.13
2022-11-10T21:31:31.109Z,81.97
2022-11-10T21:34:16.362Z,82.15
2022-11-10T21:37:01.606Z,82.44
2022-11-10T21:39:46.557Z,82.54
2022-11-10T21:42:35.312Z,82.48
2022-11-10T21:45:21.305Z,82.55
2022-11-10T21:48:07.015Z,82.99
2022-11-10T21:50:52.111Z,83.18
2022-11-10T21:53:39.013Z,83.51
2022-11-10T21:56:23.810Z,83.60
2022-11-10T21:59:08.651Z,83.65
2022-11-10T22:01:53.521Z,84.40
2022-11-10T22:04:38.295Z,84.74
2022-11-10T22:07:23.254Z,84.67
2022-11-10T22:10:28.936Z,84.91
2022-11-10T22:13:37.319Z,85.27
2022-11-10T22:16:45.214Z,85.41
2022-11-10T22:19:30.735Z,85.71
2022-11-10T22:22:15.475Z,86.04
2022-11-10T22:25:00.423Z,86.54
2022-11-10T22:27:45.509Z,86.42
2022-11-10T22:30:30.645Z,86.50
2022-11-10T22:33:27.968Z,86.66
2022-11-10T22:36:15.476Z,87.01
2022-11-10T22:39:03.637Z,87.07
2022-11-10T22:42:08.117Z,86.89
2022-11-10T22:44:53.063Z,86.81
2022-11-10T22:47:56.630Z,87.03
2022-11-10T22:50:41.954Z,86.81
2022-11-10T22:53:27.001Z,86.95
2022-11-10T22:56:12.483Z,86.83
2022-11-10T22:59:00.086Z,86.94
2022-11-10T23:01:45.693Z,87.23
2022-11-10T23:04:30.826Z,87.10
2022-11-10T23:07:15.739Z,87.23
2022-11-10T23:10:00.662Z,86.99
2022-11-10T23:12:45.608Z,87.17
2022-11-10T23:15:34.437Z,87.50
2022-11-10T23:18:20.631Z,87.72
2022-11-10T23:21:09.181Z,87.78
2022-11-10T23:23:54.977Z,87.73
2022-11-10T23:26:40.263Z,87.87
2022-11-10T23:29:25.122Z,87.51
2022-11-10T23:32:09.976Z,87.72
2022-11-10T23:34:54.762Z,87.90
2022-11-10T23:37:39.661Z,88.03
2022-11-10T23:40:24.611Z,88.27
2022-11-10T23:43:09.400Z,88.25
2022-11-10T23:46:10.320Z,88.09
2022-11-10T23:48:55.361Z,88.34
2022-11-10T23:51:40.411Z,88.50
2022-11-10T23:54:25.154Z,88.83
2022-11-10T23:57:10.243Z,88.91
2022-11-10T23:59:55.016Z,88.56
